Legend Of The Seas — C6SL5 — position and weather

sailwx.info

Track history (hours):
 
Tides and Currents Weather Stations Pressure Air Temp Water Temp Dewpoint Dewpoint Depression Visibility Wind Speed Wind Dir Waves Ship Positions

Legend Of The Seas

Operator: Royal Caribbean Cruises Ltd

Last reported at 2016-Dec-03 17:30 UTC. Time now 2016-Dec-03 19:40 UTC.
Position S 25°16' E 154°29'.

Type: Passenger vessel. MMSI: 311378000.

Date/timePositionNaut miles runAvg speedWind from/ knotsBaromVisibWave heightAir tempDewpointWater temp
2016-Dec-03 17:30S 25°16' E 154°29'8 8.5
2016-Dec-03 16:33S 25°08' E 154°29'108 3.8
2016-Dec-02 12:16S 26°38' E 153°23'6 8.2
2016-Dec-02 11:33S 26°41' E 153°17'10 8.3
2016-Dec-02 10:24S 26°48' E 153°11'1214.1
2016-Dec-02 09:33S 26°60' E 153°14'1514.9
2016-Dec-02 08:33S 27°13' E 153°20'1414.1
2016-Dec-02 07:33S 27°24' E 153°09'5 5.4
2016-Dec-02 06:33S 27°27' E 153°04'0 0.1
2016-Dec-02 05:31S 27°26' E 153°04'0 0.0
2016-Dec-02 04:31S 27°26' E 153°04'0 0.0
2016-Dec-02 03:31S 27°26' E 153°04'0 0.0
2016-Dec-02 02:31S 27°26' E 153°04'0 0.0
2016-Dec-02 01:31S 27°26' E 153°04'0 0.0
2016-Dec-02 00:31S 27°26' E 153°04'0 0.0
2016-Dec-01 23:31S 27°26' E 153°04'0 0.0
2016-Dec-01 22:31S 27°26' E 153°04'0 0.0
2016-Dec-01 21:28S 27°26' E 153°04'0 0.0
2016-Dec-01 20:28S 27°26' E 153°04'0 0.0
2016-Dec-01 19:33S 27°26' E 153°04'5 4.9
2016-Dec-01 18:33S 27°24' E 153°09'1211.9
2016-Dec-01 17:33S 27°15' E 153°18'1414.3
2016-Dec-01 16:33S 27°01' E 153°15'1414.5
2016-Dec-01 15:33S 26°47' E 153°12'1212.1
2016-Dec-01 14:34S 26°38' E 153°21'1814.7
2016-Dec-01 13:19S 26°27' E 153°37'1114.6
2016-Dec-01 12:34S 26°22' E 153°48'4915.0
2016-Dec-01 09:19S 25°54' E 154°33'78118.0
2016-Nov-29 14:00S 18°00' E 165°42'217 9.0 100 / 61018.210.8 26.0
2016-Nov-28 14:00S 17°54' E 169°30'35515.4 090 / 151019.210.8 26.0 25.0
2016-Nov-27 15:00S 18°30' E 175°42'   120 / 51019.210.8 28.028.026.0
Track history (hours):
 
Tides and Currents Weather Stations Pressure Air Temp Water Temp Dewpoint Dewpoint Depression Visibility Wind Speed Wind Dir Waves Ship Positions

Legend Of The Seas

Operator: Royal Caribbean Cruises Ltd

Last reported at 2016-Dec-03 17:30 UTC. Time now 2016-Dec-03 19:40 UTC.
Position S 25°16' E 154°29'.

Type: Passenger vessel. MMSI: 311378000.

Date/timePositionNaut miles runAvg speedWind from/ knotsBaromVisibWave heightAir tempDewpointWater temp
2016-Dec-03 17:30S 25°16' E 154°29'8 8.5
2016-Dec-03 16:33S 25°08' E 154°29'108 3.8
2016-Dec-02 12:16S 26°38' E 153°23'6 8.2
2016-Dec-02 11:33S 26°41' E 153°17'10 8.3
2016-Dec-02 10:24S 26°48' E 153°11'1214.1
2016-Dec-02 09:33S 26°60' E 153°14'1514.9
2016-Dec-02 08:33S 27°13' E 153°20'1414.1
2016-Dec-02 07:33S 27°24' E 153°09'5 5.4
2016-Dec-02 06:33S 27°27' E 153°04'0 0.1
2016-Dec-02 05:31S 27°26' E 153°04'0 0.0
2016-Dec-02 04:31S 27°26' E 153°04'0 0.0
2016-Dec-02 03:31S 27°26' E 153°04'0 0.0
2016-Dec-02 02:31S 27°26' E 153°04'0 0.0
2016-Dec-02 01:31S 27°26' E 153°04'0 0.0
2016-Dec-02 00:31S 27°26' E 153°04'0 0.0
2016-Dec-01 23:31S 27°26' E 153°04'0 0.0
2016-Dec-01 22:31S 27°26' E 153°04'0 0.0
2016-Dec-01 21:28S 27°26' E 153°04'0 0.0
2016-Dec-01 20:28S 27°26' E 153°04'0 0.0
2016-Dec-01 19:33S 27°26' E 153°04'5 4.9
2016-Dec-01 18:33S 27°24' E 153°09'1211.9
2016-Dec-01 17:33S 27°15' E 153°18'1414.3
2016-Dec-01 16:33S 27°01' E 153°15'1414.5
2016-Dec-01 15:33S 26°47' E 153°12'1212.1
2016-Dec-01 14:34S 26°38' E 153°21'1814.7
2016-Dec-01 13:19S 26°27' E 153°37'1114.6
2016-Dec-01 12:34S 26°22' E 153°48'4915.0
2016-Dec-01 09:19S 25°54' E 154°33'78118.0
2016-Nov-29 14:00S 18°00' E 165°42'217 9.0 100 / 61018.210.8 26.0
2016-Nov-28 14:00S 17°54' E 169°30'35515.4 090 / 151019.210.8 26.0 25.0
2016-Nov-27 15:00S 18°30' E 175°42'   120 / 51019.210.8 28.028.026.0

Dump ship's entire track history